createdAt,value
2018-04-17T00:00:33.894Z,13.15
2018-04-17T00:03:01.408Z,13.08
2018-04-17T00:05:28.915Z,13.16
2018-04-17T00:07:56.428Z,13.16
2018-04-17T00:10:23.952Z,13.24
2018-04-17T00:12:51.459Z,13.28
2018-04-17T00:15:19.002Z,13.29
2018-04-17T00:17:46.508Z,13.28
2018-04-17T00:20:14.007Z,13.31
2018-04-17T00:22:41.518Z,13.39
2018-04-17T00:25:09.015Z,13.40
2018-04-17T00:27:36.565Z,13.21
2018-04-17T00:30:05.611Z,13.14
2018-04-17T00:32:33.208Z,13.10
2018-04-17T00:35:00.740Z,13.08
2018-04-17T00:37:28.264Z,13.13
2018-04-17T00:39:55.783Z,13.06
2018-04-17T00:42:23.287Z,13.07
2018-04-17T00:44:50.835Z,13.12
2018-04-17T00:47:18.402Z,13.10
2018-04-17T00:49:45.898Z,13.16
2018-04-17T00:52:13.409Z,13.14
2018-04-17T00:54:40.952Z,13.15
2018-04-17T00:57:08.459Z,13.07
2018-04-17T00:59:35.989Z,13.00
2018-04-17T01:02:03.486Z,12.97
2018-04-17T01:04:30.990Z,12.93
2018-04-17T01:06:58.495Z,12.86
2018-04-17T01:09:25.996Z,12.79
2018-04-17T01:11:53.537Z,12.76
2018-04-17T01:14:21.051Z,12.62
2018-04-17T01:16:48.555Z,12.44
2018-04-17T01:19:16.064Z,12.37
2018-04-17T01:21:43.576Z,12.44
2018-04-17T01:24:11.125Z,12.67
2018-04-17T01:26:38.670Z,12.44
2018-04-17T01:29:06.171Z,12.00
2018-04-17T01:31:33.688Z,12.02
2018-04-17T01:34:01.198Z,12.17
2018-04-17T01:36:28.704Z,12.22
2018-04-17T01:38:56.221Z,12.14
2018-04-17T01:41:23.773Z,12.16
2018-04-17T01:43:51.312Z,12.14
2018-04-17T01:46:18.819Z,12.15
2018-04-17T01:48:46.327Z,12.16
2018-04-17T01:51:13.875Z,12.25
2018-04-17T01:53:41.382Z,12.31
2018-04-17T01:56:08.956Z,12.14
2018-04-17T01:58:36.436Z,11.93
2018-04-17T02:01:03.937Z,11.81
2018-04-17T02:03:31.443Z,11.46
2018-04-17T02:05:58.973Z,11.67
2018-04-17T02:08:26.479Z,11.80
2018-04-17T02:10:53.983Z,12.02
2018-04-17T02:13:21.483Z,11.98
2018-04-17T02:15:48.984Z,11.95
2018-04-17T02:18:16.496Z,12.02
2018-04-17T02:20:44.008Z,12.12
2018-04-17T02:23:11.568Z,12.12
2018-04-17T02:25:39.070Z,12.05
2018-04-17T02:28:06.580Z,12.04
2018-04-17T02:30:34.094Z,12.15
2018-04-17T02:33:01.612Z,12.14
2018-04-17T02:35:29.123Z,12.16
2018-04-17T02:37:56.628Z,12.13
2018-04-17T02:40:24.136Z,12.10
2018-04-17T02:42:51.639Z,12.08
2018-04-17T02:45:19.199Z,12.10
2018-04-17T02:47:46.720Z,12.06
2018-04-17T02:50:14.227Z,12.13
2018-04-17T02:52:41.730Z,12.06
2018-04-17T02:55:09.239Z,12.04
2018-04-17T02:57:36.767Z,12.00
2018-04-17T03:00:05.009Z,11.91
2018-04-17T03:02:32.525Z,11.86
2018-04-17T03:05:00.035Z,11.96
2018-04-17T03:07:27.547Z,12.04
2018-04-17T03:09:55.069Z,12.12
2018-04-17T03:12:22.580Z,12.08
2018-04-17T03:14:50.087Z,12.20
2018-04-17T03:17:17.591Z,12.19
2018-04-17T03:19:45.104Z,12.14
2018-04-17T03:22:12.608Z,12.04
2018-04-17T03:24:40.155Z,12.08
2018-04-17T03:27:07.664Z,12.12
2018-04-17T03:29:35.159Z,12.16
2018-04-17T03:32:02.665Z,12.22
2018-04-17T03:34:30.171Z,12.26
2018-04-17T03:36:57.671Z,12.20
2018-04-17T03:39:25.226Z,12.16
2018-04-17T03:41:52.736Z,11.99
2018-04-17T03:44:20.241Z,12.04
2018-04-17T03:46:47.744Z,12.13
2018-04-17T03:49:15.292Z,12.23
2018-04-17T03:51:42.799Z,12.26
2018-04-17T03:54:10.376Z,12.02
2018-04-17T03:56:37.920Z,12.02
2018-04-17T03:59:05.421Z,12.09
2018-04-17T04:01:32.969Z,12.15
2018-04-17T04:04:00.475Z,12.19
2018-04-17T04:06:28.054Z,12.09
2018-04-17T04:08:55.612Z,12.13
2018-04-17T04:11:23.164Z,12.00
2018-04-17T04:13:50.692Z,11.81
2018-04-17T04:16:30.243Z,11.77
2018-04-17T04:22:26.454Z,11.91
2018-04-17T04:25:05.758Z,12.01
2018-04-17T04:27:33.375Z,12.06
2018-04-17T04:30:00.863Z,12.21
2018-04-17T04:32:28.371Z,12.24
2018-04-17T04:34:55.878Z,12.13
2018-04-17T04:37:23.384Z,12.29
2018-04-17T04:39:50.906Z,12.35
2018-04-17T04:42:18.411Z,12.40
2018-04-17T04:44:45.949Z,12.51
2018-04-17T04:47:13.456Z,12.51
2018-04-17T04:49:41.007Z,12.52
2018-04-17T04:52:08.538Z,12.58
2018-04-17T04:54:36.047Z,12.47
2018-04-17T04:57:03.552Z,12.71
2018-04-17T04:59:31.058Z,12.77
2018-04-17T05:01:58.663Z,13.00
2018-04-17T05:04:26.167Z,12.95
2018-04-17T05:06:53.680Z,13.07
2018-04-17T05:09:21.239Z,13.31
2018-04-17T05:11:48.754Z,13.53
2018-04-17T05:14:16.258Z,13.76
2018-04-17T05:16:43.770Z,13.49
2018-04-17T05:19:11.320Z,13.17
2018-04-17T05:21:38.833Z,13.07
2018-04-17T05:24:06.353Z,13.17
2018-04-17T05:26:33.862Z,13.10
2018-04-17T05:29:01.413Z,13.23
2018-04-17T05:31:28.927Z,13.72
2018-04-17T05:33:56.532Z,14.50
2018-04-17T05:36:24.047Z,15.22
2018-04-17T05:38:51.551Z,16.05
2018-04-17T05:41:19.096Z,16.94
2018-04-17T05:43:46.603Z,17.43
2018-04-17T05:46:14.106Z,17.47
2018-04-17T05:48:41.610Z,18.40
2018-04-17T05:51:09.109Z,18.32
2018-04-17T05:53:36.633Z,18.88
2018-04-17T05:56:04.135Z,19.53
2018-04-17T05:58:31.687Z,20.90
2018-04-17T06:00:59.249Z,20.75
2018-04-17T06:03:26.751Z,19.81
2018-04-17T06:05:54.257Z,19.64
2018-04-17T06:08:21.782Z,19.98
2018-04-17T06:10:49.337Z,19.08
2018-04-17T06:13:16.843Z,19.67
2018-04-17T06:15:44.397Z,19.91
2018-04-17T06:18:11.928Z,19.89
2018-04-17T06:20:39.447Z,19.64
2018-04-17T06:23:07.008Z,19.54
2018-04-17T06:25:34.515Z,19.03
2018-04-17T06:28:02.051Z,19.11
2018-04-17T06:30:29.621Z,19.48
2018-04-17T06:32:57.136Z,18.82
2018-04-17T06:35:24.760Z,17.73
2018-04-17T06:37:52.346Z,18.24
2018-04-17T06:40:19.904Z,19.33
2018-04-17T06:42:47.423Z,19.55
2018-04-17T06:45:14.999Z,20.15
2018-04-17T06:47:42.575Z,19.62
2018-04-17T06:50:10.074Z,19.96
2018-04-17T06:52:37.669Z,20.12
2018-04-17T06:55:05.164Z,19.82
2018-04-17T06:57:32.684Z,19.29
2018-04-17T07:00:00.197Z,19.98
2018-04-17T07:02:27.706Z,20.77
2018-04-17T07:04:55.243Z,19.87
2018-04-17T07:07:22.796Z,19.85
2018-04-17T07:09:50.303Z,19.69
2018-04-17T07:12:17.865Z,20.71
2018-04-17T07:14:45.385Z,20.84
2018-04-17T07:17:12.913Z,20.77
2018-04-17T07:19:40.461Z,20.94
2018-04-17T07:22:07.985Z,20.98
2018-04-17T07:24:35.492Z,21.82
2018-04-17T07:27:03.026Z,20.47
2018-04-17T07:29:30.578Z,20.70
2018-04-17T07:31:58.088Z,21.61
2018-04-17T07:34:25.629Z,22.32
2018-04-17T07:36:53.132Z,21.61
2018-04-17T07:39:20.636Z,21.05
2018-04-17T07:41:48.139Z,20.99
2018-04-17T07:44:15.660Z,21.42
2018-04-17T07:46:43.164Z,21.72
2018-04-17T07:49:10.683Z,20.75
2018-04-17T07:51:38.181Z,21.41
2018-04-17T07:54:05.688Z,20.97
2018-04-17T07:56:33.190Z,19.76
2018-04-17T07:59:00.690Z,20.48
2018-04-17T08:01:28.195Z,21.17
2018-04-17T08:03:55.691Z,21.55
2018-04-17T08:06:23.195Z,21.75
2018-04-17T08:08:50.735Z,22.74
2018-04-17T08:11:18.309Z,22.37
2018-04-17T08:13:46.685Z,22.83
2018-04-17T08:16:14.249Z,23.44
2018-04-17T08:18:41.760Z,23.08
2018-04-17T08:21:09.263Z,23.52
2018-04-17T08:23:36.764Z,22.84
2018-04-17T08:26:04.269Z,22.06
2018-04-17T08:28:31.771Z,23.82
2018-04-17T08:30:59.603Z,24.45
2018-04-17T08:33:27.108Z,23.66
2018-04-17T08:35:54.678Z,23.19
2018-04-17T08:38:22.175Z,23.54
2018-04-17T08:40:49.688Z,23.39
2018-04-17T08:43:17.195Z,22.97
2018-04-17T08:45:44.703Z,22.90
2018-04-17T08:48:12.217Z,23.44
2018-04-17T08:50:39.719Z,23.91
2018-04-17T08:53:07.255Z,24.47
2018-04-17T08:55:34.769Z,24.59
2018-04-17T08:58:02.315Z,23.32
2018-04-17T09:00:30.363Z,23.61
2018-04-17T09:02:57.876Z,23.96
2018-04-17T09:05:25.428Z,23.18
2018-04-17T09:07:52.944Z,22.41
2018-04-17T09:10:20.464Z,21.38
2018-04-17T09:12:47.959Z,21.54
2018-04-17T09:15:15.475Z,21.93
2018-04-17T09:17:42.975Z,22.00
2018-04-17T09:20:10.481Z,22.01
2018-04-17T09:22:38.051Z,21.69
2018-04-17T09:25:05.553Z,21.14
2018-04-17T09:27:33.181Z,20.92
2018-04-17T09:30:00.742Z,21.73
2018-04-17T09:32:28.242Z,22.46
2018-04-17T09:34:55.739Z,22.70
2018-04-17T09:37:23.312Z,22.50
2018-04-17T09:39:50.833Z,22.19
2018-04-17T09:42:18.343Z,22.49
2018-04-17T09:44:45.850Z,22.58
2018-04-17T09:47:13.385Z,22.74
2018-04-17T09:49:40.903Z,22.93
2018-04-17T09:52:08.443Z,22.89
2018-04-17T09:54:35.953Z,24.12
2018-04-17T09:57:03.465Z,25.13
2018-04-17T09:59:30.979Z,23.95
2018-04-17T10:01:58.479Z,23.86
2018-04-17T10:04:25.992Z,22.62
2018-04-17T10:06:53.541Z,22.66
2018-04-17T10:09:21.039Z,22.61
2018-04-17T10:11:48.585Z,22.92
2018-04-17T10:14:16.079Z,23.32
2018-04-17T10:16:43.588Z,23.95
2018-04-17T10:19:11.088Z,24.00
2018-04-17T10:21:38.591Z,23.91
2018-04-17T10:24:06.144Z,23.77
2018-04-17T10:26:33.638Z,22.81
2018-04-17T10:29:01.142Z,22.76
2018-04-17T10:31:28.642Z,22.69
2018-04-17T10:33:56.175Z,22.38
2018-04-17T10:36:23.683Z,22.36
2018-04-17T10:38:51.201Z,23.24
2018-04-17T10:41:18.701Z,23.50
2018-04-17T10:43:46.206Z,23.84
2018-04-17T10:46:13.748Z,23.96
2018-04-17T10:48:41.251Z,23.71
2018-04-17T10:51:08.756Z,23.96
2018-04-17T10:53:36.257Z,24.19
2018-04-17T10:56:03.767Z,25.63
2018-04-17T10:58:31.267Z,25.44
2018-04-17T11:00:58.771Z,25.45
2018-04-17T11:03:26.310Z,24.79
2018-04-17T11:05:53.813Z,24.57
2018-04-17T11:08:21.383Z,24.88
2018-04-17T11:10:48.892Z,24.76
2018-04-17T11:13:16.405Z,23.97
2018-04-17T11:15:43.953Z,25.04
2018-04-17T11:18:11.467Z,26.07
2018-04-17T11:20:38.963Z,25.78
2018-04-17T11:23:06.531Z,25.41
2018-04-17T11:25:34.016Z,25.67
2018-04-17T11:28:01.557Z,25.08
2018-04-17T11:30:29.072Z,26.33
2018-04-17T11:32:56.590Z,27.59
2018-04-17T11:35:24.125Z,27.23
2018-04-17T11:37:51.632Z,26.51
2018-04-17T11:40:19.245Z,26.91
2018-04-17T11:42:46.772Z,25.85
2018-04-17T11:45:14.365Z,25.93
2018-04-17T11:47:41.887Z,26.11
2018-04-17T11:50:09.408Z,25.55
2018-04-17T11:52:36.916Z,25.69
2018-04-17T11:55:04.427Z,26.48
2018-04-17T11:57:31.938Z,26.63
2018-04-17T11:59:59.448Z,26.31
2018-04-17T12:02:26.948Z,27.16
2018-04-17T12:04:54.459Z,27.31
2018-04-17T12:07:21.969Z,26.90
2018-04-17T12:09:49.475Z,25.96
2018-04-17T12:12:16.978Z,24.89
2018-04-17T12:14:44.577Z,25.51
2018-04-17T12:17:12.060Z,26.25
2018-04-17T12:19:39.562Z,26.45
2018-04-17T12:22:07.073Z,25.77
2018-04-17T12:24:34.619Z,25.91
2018-04-17T12:27:02.166Z,26.33
2018-04-17T12:29:29.679Z,26.58
2018-04-17T12:31:57.285Z,25.97
2018-04-17T12:34:24.786Z,26.07
2018-04-17T12:36:52.294Z,26.67
2018-04-17T12:39:19.845Z,27.31
2018-04-17T12:41:47.420Z,26.99
2018-04-17T12:44:14.939Z,26.08
2018-04-17T12:46:42.518Z,25.54
2018-04-17T12:49:10.029Z,25.01
2018-04-17T12:51:37.554Z,25.26
2018-04-17T12:54:05.064Z,24.42
2018-04-17T12:56:32.572Z,24.19
2018-04-17T12:59:00.081Z,24.36
2018-04-17T13:01:27.644Z,24.56
2018-04-17T13:03:55.153Z,25.01
2018-04-17T13:06:22.660Z,25.52
2018-04-17T13:08:50.271Z,25.16
2018-04-17T13:11:17.828Z,24.81
2018-04-17T13:13:45.388Z,24.86
2018-04-17T13:16:12.887Z,24.95
2018-04-17T13:18:40.403Z,24.58
2018-04-17T13:21:08.887Z,24.49
2018-04-17T13:23:36.399Z,24.99
2018-04-17T13:26:03.911Z,24.97
2018-04-17T13:28:31.429Z,24.74
2018-04-17T13:30:58.976Z,24.79
2018-04-17T13:33:26.479Z,24.63
2018-04-17T13:35:54.023Z,24.64
2018-04-17T13:38:21.535Z,24.77
2018-04-17T13:40:49.044Z,24.53
2018-04-17T13:43:16.618Z,24.43
2018-04-17T13:45:44.119Z,23.96
2018-04-17T13:48:11.634Z,23.56
2018-04-17T13:50:39.139Z,23.49
2018-04-17T13:53:06.680Z,23.41
2018-04-17T13:55:34.212Z,22.89
2018-04-17T13:58:01.784Z,23.41
2018-04-17T14:00:29.332Z,23.09
2018-04-17T14:02:56.890Z,22.79
2018-04-17T14:05:24.392Z,22.83
2018-04-17T14:07:51.935Z,22.80
2018-04-17T14:10:19.437Z,22.61
2018-04-17T14:12:46.996Z,22.28
2018-04-17T14:15:14.503Z,22.42
2018-04-17T14:17:42.013Z,22.42
2018-04-17T14:20:09.604Z,22.49
2018-04-17T14:22:37.107Z,22.35
2018-04-17T14:25:04.663Z,22.42
2018-04-17T14:27:32.179Z,22.12
2018-04-17T14:29:59.687Z,22.15
2018-04-17T14:32:27.219Z,22.11
2018-04-17T14:34:54.721Z,21.92
2018-04-17T14:37:22.221Z,21.75
2018-04-17T14:39:49.724Z,21.60
2018-04-17T14:42:17.258Z,21.54
2018-04-17T14:44:44.765Z,21.32
2018-04-17T14:47:12.348Z,20.92
2018-04-17T14:49:39.902Z,20.76
2018-04-17T14:52:08.248Z,20.77
2018-04-17T14:54:36.033Z,20.92
2018-04-17T14:57:03.579Z,20.80
2018-04-17T14:59:31.098Z,20.59
2018-04-17T15:01:58.593Z,20.42
2018-04-17T15:04:26.131Z,20.14
2018-04-17T15:06:53.647Z,19.87
2018-04-17T15:09:21.211Z,19.83
2018-04-17T15:11:48.715Z,19.68
2018-04-17T15:14:16.215Z,19.35
2018-04-17T15:16:43.728Z,19.16
2018-04-17T15:19:11.232Z,18.79
2018-04-17T15:21:38.726Z,18.82
2018-04-17T15:24:06.225Z,18.65
2018-04-17T15:26:33.821Z,18.48
2018-04-17T15:29:01.347Z,18.39
2018-04-17T15:31:28.942Z,18.36
2018-04-17T15:33:56.500Z,18.40
2018-04-17T15:36:24.005Z,18.37
2018-04-17T15:38:51.516Z,18.31
2018-04-17T15:41:19.267Z,18.17
2018-04-17T15:43:46.767Z,17.73
2018-04-17T15:46:14.298Z,17.58
2018-04-17T15:48:41.831Z,17.45
2018-04-17T15:51:09.331Z,17.38
2018-04-17T15:53:36.837Z,17.14
2018-04-17T15:56:04.344Z,16.76
2018-04-17T15:58:32.377Z,16.64
2018-04-17T16:00:59.887Z,16.54
2018-04-17T16:03:27.443Z,16.46
2018-04-17T16:05:54.956Z,16.50
2018-04-17T16:08:22.500Z,16.40
2018-04-17T16:10:50.011Z,16.46
2018-04-17T16:13:17.546Z,16.46
2018-04-17T16:15:45.076Z,16.45
2018-04-17T16:18:12.578Z,16.53
2018-04-17T16:20:40.093Z,16.54
2018-04-17T16:23:08.215Z,16.58
2018-04-17T16:25:35.771Z,16.64
2018-04-17T16:28:03.333Z,16.66
2018-04-17T16:30:31.022Z,16.32
2018-04-17T16:32:58.579Z,16.33
2018-04-17T16:35:26.205Z,16.36
2018-04-17T16:37:53.715Z,16.22
2018-04-17T16:40:21.226Z,16.32
2018-04-17T16:42:48.788Z,16.38
2018-04-17T16:45:16.393Z,16.33
2018-04-17T16:47:43.905Z,16.29
2018-04-17T16:50:11.418Z,16.39
2018-04-17T16:52:38.955Z,16.33
2018-04-17T16:55:06.512Z,16.37
2018-04-17T16:57:34.060Z,16.41
2018-04-17T17:00:01.956Z,16.37
2018-04-17T17:02:29.475Z,16.25
2018-04-17T17:04:57.015Z,16.31
2018-04-17T17:07:24.569Z,16.39
2018-04-17T17:09:52.385Z,16.46
2018-04-17T17:12:19.924Z,16.50
2018-04-17T17:14:47.511Z,16.54
2018-04-17T17:17:15.040Z,16.62
2018-04-17T17:19:42.552Z,16.65
2018-04-17T17:22:10.072Z,16.79
2018-04-17T17:24:37.586Z,16.78
2018-04-17T17:27:05.150Z,16.82
2018-04-17T17:29:32.641Z,16.87
2018-04-17T17:32:00.159Z,16.90
2018-04-17T17:34:27.671Z,16.91
2018-04-17T17:36:55.194Z,16.89
2018-04-17T17:39:22.708Z,16.84
2018-04-17T17:41:50.229Z,16.92
2018-04-17T17:44:17.743Z,16.93
2018-04-17T17:46:45.260Z,16.80
2018-04-17T17:49:12.800Z,16.79
2018-04-17T17:51:40.320Z,16.63
2018-04-17T17:54:07.835Z,16.63
2018-04-17T17:56:35.350Z,16.64
2018-04-17T17:59:02.871Z,16.67
2018-04-17T18:01:30.395Z,16.73
2018-04-17T18:03:57.937Z,16.71
2018-04-17T18:06:25.471Z,16.60
2018-04-17T18:08:52.983Z,16.51
2018-04-17T18:11:20.535Z,16.49
2018-04-17T18:13:48.036Z,16.46
2018-04-17T18:16:15.546Z,16.34
2018-04-17T18:18:43.052Z,16.37
2018-04-17T18:21:10.581Z,16.35
2018-04-17T18:23:38.084Z,16.36
2018-04-17T18:26:05.595Z,16.34
2018-04-17T18:28:33.099Z,16.41
2018-04-17T18:31:00.603Z,16.25
2018-04-17T18:33:28.163Z,16.35
2018-04-17T18:35:56.533Z,16.50
2018-04-17T18:38:24.041Z,16.54
2018-04-17T18:40:51.553Z,16.63
2018-04-17T18:43:19.104Z,16.61
2018-04-17T18:45:46.644Z,16.58
2018-04-17T18:48:14.204Z,16.68
2018-04-17T18:50:41.710Z,16.71
2018-04-17T18:53:09.215Z,16.69
2018-04-17T18:55:36.719Z,16.60
2018-04-17T18:58:04.289Z,16.55
2018-04-17T19:00:32.742Z,16.31
2018-04-17T19:03:00.255Z,16.17
2018-04-17T19:05:27.797Z,16.32
2018-04-17T19:07:55.366Z,16.32
2018-04-17T19:10:22.911Z,16.20
2018-04-17T19:12:50.439Z,16.19
2018-04-17T19:15:18.712Z,16.13
2018-04-17T19:17:46.225Z,16.22
2018-04-17T19:20:13.768Z,16.12
2018-04-17T19:22:41.273Z,16.17
2018-04-17T19:25:08.782Z,16.14
2018-04-17T19:27:36.291Z,16.13
2018-04-17T19:30:05.104Z,16.09
2018-04-17T19:32:32.671Z,16.06
2018-04-17T19:35:00.217Z,16.06
2018-04-17T19:37:27.783Z,16.20
2018-04-17T19:39:55.299Z,16.04
2018-04-17T19:42:22.821Z,16.07
2018-04-17T19:44:50.324Z,16.04
2018-04-17T19:47:17.831Z,16.01
2018-04-17T19:49:45.378Z,15.90
2018-04-17T19:52:12.892Z,15.83
2018-04-17T19:54:40.408Z,15.79
2018-04-17T19:57:07.943Z,15.80
2018-04-17T19:59:35.511Z,15.74
2018-04-17T20:02:03.018Z,15.67
2018-04-17T20:04:30.551Z,15.75
2018-04-17T20:06:58.071Z,15.65
2018-04-17T20:09:25.585Z,15.63
2018-04-17T20:11:53.141Z,15.79
2018-04-17T20:14:20.652Z,15.77
2018-04-17T20:16:48.167Z,15.71
2018-04-17T20:19:15.682Z,15.69
2018-04-17T20:21:43.235Z,15.73
2018-04-17T20:24:10.760Z,15.65
2018-04-17T20:26:38.325Z,15.63
2018-04-17T20:29:05.843Z,15.38
2018-04-17T20:31:33.411Z,15.42
2018-04-17T20:34:00.932Z,15.38
2018-04-17T20:36:28.443Z,15.35
2018-04-17T20:38:55.954Z,15.17
2018-04-17T20:41:23.467Z,15.03
2018-04-17T20:43:50.986Z,14.99
2018-04-17T20:46:18.540Z,14.90
2018-04-17T20:48:46.057Z,15.01
2018-04-17T20:51:14.324Z,14.94
2018-04-17T20:53:41.864Z,14.95
2018-04-17T20:56:09.423Z,14.91
2018-04-17T20:58:36.931Z,15.02
2018-04-17T21:01:04.521Z,15.05
2018-04-17T21:03:32.022Z,15.07
2018-04-17T21:05:59.547Z,15.07
2018-04-17T21:08:27.076Z,15.02
2018-04-17T21:10:54.651Z,14.96
2018-04-17T21:13:22.167Z,14.85
2018-04-17T21:15:49.691Z,14.81
2018-04-17T21:18:17.251Z,14.73
2018-04-17T21:20:44.790Z,14.81
2018-04-17T21:23:12.296Z,14.73
2018-04-17T21:25:39.819Z,14.73
2018-04-17T21:28:07.367Z,14.74
2018-04-17T21:30:34.908Z,14.84
2018-04-17T21:33:02.784Z,14.81
2018-04-17T21:35:30.282Z,14.79
2018-04-17T21:37:57.815Z,14.84
2018-04-17T21:40:25.386Z,14.81
2018-04-17T21:42:52.891Z,14.79
2018-04-17T21:45:20.395Z,14.77
2018-04-17T21:47:47.984Z,14.73
2018-04-17T21:50:15.495Z,14.65
2018-04-17T21:52:43.011Z,14.61
2018-04-17T21:55:10.568Z,14.53
2018-04-17T21:57:38.071Z,14.50
2018-04-17T22:00:05.702Z,14.46
2018-04-17T22:02:33.208Z,14.41
2018-04-17T22:05:00.713Z,14.37
2018-04-17T22:07:28.227Z,14.41
2018-04-17T22:09:55.735Z,14.40
2018-04-17T22:12:23.252Z,14.44
2018-04-17T22:14:50.781Z,14.42
2018-04-17T22:17:18.289Z,14.33
2018-04-17T22:19:45.847Z,14.36
2018-04-17T22:22:13.402Z,14.34
2018-04-17T22:24:40.912Z,14.33
2018-04-17T22:27:08.423Z,14.30
2018-04-17T22:29:35.963Z,14.31
2018-04-17T22:32:03.479Z,14.34
2018-04-17T22:34:30.992Z,14.33
2018-04-17T22:36:58.536Z,14.32
2018-04-17T22:39:26.120Z,14.28
2018-04-17T22:41:53.648Z,14.23
2018-04-17T22:44:21.211Z,14.14
2018-04-17T22:46:48.731Z,14.02
2018-04-17T22:49:16.265Z,14.04
2018-04-17T22:51:43.774Z,14.04
2018-04-17T22:54:11.293Z,14.03
2018-04-17T22:56:38.811Z,14.07
2018-04-17T22:59:06.367Z,14.09
2018-04-17T23:01:33.870Z,13.99
2018-04-17T23:04:01.378Z,14.04
2018-04-17T23:06:28.888Z,13.93
2018-04-17T23:08:56.459Z,13.88
2018-04-17T23:11:23.968Z,14.00
2018-04-17T23:13:51.481Z,13.91
2018-04-17T23:16:18.987Z,13.93
2018-04-17T23:18:46.505Z,13.93
2018-04-17T23:21:14.017Z,13.78
2018-04-17T23:23:41.521Z,13.84
2018-04-17T23:26:09.028Z,13.86
2018-04-17T23:28:36.541Z,13.84
2018-04-17T23:31:04.055Z,13.80
2018-04-17T23:33:31.563Z,13.82
2018-04-17T23:35:59.073Z,13.75
2018-04-17T23:38:26.575Z,13.74
2018-04-17T23:40:54.123Z,13.66
2018-04-17T23:43:21.653Z,13.66
2018-04-17T23:45:49.154Z,13.72
2018-04-17T23:48:16.666Z,13.75
2018-04-17T23:50:44.179Z,13.78
2018-04-17T23:53:11.687Z,13.72
2018-04-17T23:55:39.246Z,13.77
2018-04-17T23:58:06.743Z,13.84
